Time;durP1;ratioP1;P1;durP2;ratioP2;P2;SDS_P1;SDS_P2;PMS_P1;PMS_P2;Temp;Humidity;BMP_temperature;BMP_pressure;BME280_temperature;BME280_humidity;BME280_pressure;Samples;Min_cycle;Max_cycle;Signal;HPM_P1;HPM_P2
2021/03/17 00:01:05;;;;;;;32.20;20.75;;;;;;;3.28;80.08;98805.87;1708406;84;21196;-66
2021/03/17 00:03:52;;;;;;;32.63;18.52;;;;;;;3.30;80.12;98810.45;1698395;83;21127;-69
2021/03/17 00:06:38;;;;;;;26.97;17.92;;;;;;;3.31;80.21;98801.45;1679223;85;21166;-66
2021/03/17 00:09:23;;;;;;;26.87;15.30;;;;;;;3.33;80.26;98798.03;1704467;82;21278;-67
2021/03/17 00:12:10;;;;;;;23.77;14.40;;;;;;;3.33;80.04;98798.84;1699492;84;21120;-70
2021/03/17 00:14:56;;;;;;;16.85;11.68;;;;;;;3.27;79.85;98797.08;1699791;84;21190;-67
2021/03/17 00:17:43;;;;;;;20.30;16.65;;;;;;;3.28;79.96;98795.23;1699719;84;21202;-68
2021/03/17 00:20:30;;;;;;;17.25;11.93;;;;;;;3.27;79.88;98790.44;1703422;83;21180;-68
2021/03/17 00:23:18;;;;;;;22.50;16.15;;;;;;;3.28;79.95;98788.59;1702959;83;21399;-69
2021/03/17 00:26:04;;;;;;;21.02;14.00;;;;;;;3.25;79.96;98787.21;1700476;83;21176;-66
2021/03/17 00:28:51;;;;;;;20.60;14.28;;;;;;;3.27;80.09;98786.45;1699940;84;21140;-69
2021/03/17 00:31:38;;;;;;;20.43;13.83;;;;;;;3.31;80.21;98786.84;1700136;84;21917;-64
2021/03/17 00:34:24;;;;;;;26.93;13.50;;;;;;;3.33;79.87;98780.25;1707643;83;21184;-65
2021/03/17 00:37:11;;;;;;;14.45;11.68;;;;;;;3.34;79.71;98783.20;1710706;83;21207;-65
2021/03/17 00:39:57;;;;;;;21.02;14.05;;;;;;;3.34;79.76;98789.03;1717418;83;21632;-65
2021/03/17 00:42:43;;;;;;;22.58;14.05;;;;;;;3.34;79.75;98791.17;1670886;84;21145;-63
2021/03/17 00:45:30;;;;;;;26.00;17.52;;;;;;;3.31;79.73;98789.50;1710681;83;21131;-64
2021/03/17 00:48:13;;;;;;;22.77;19.07;;;;;;;3.28;79.85;98797.37;1714747;83;21576;-63
2021/03/17 00:50:42;;;;;;;23.67;13.28;;;;;;;3.32;79.93;98798.55;1695314;84;22216;-67
2021/03/17 00:53:10;;;;;;;19.05;14.20;;;;;;;3.36;79.61;98795.73;1699642;84;21140;-66
2021/03/17 00:55:38;;;;;;;27.52;16.60;;;;;;;3.38;79.43;98797.66;1676902;85;21174;-64
2021/03/17 00:58:19;;;;;;;24.97;18.20;;;;;;;3.38;79.27;98791.02;1846034;76;22745;-63
2021/03/17 01:00:47;;;;;;;23.22;15.93;;;;;;;3.31;79.33;98798.25;1806714;79;20925;-65
2021/03/17 01:03:15;;;;;;;20.90;13.75;;;;;;;3.29;79.30;98788.38;1815344;79;21195;-64
2021/03/17 01:05:43;;;;;;;22.87;14.38;;;;;;;3.29;79.33;98781.73;1784876;80;21018;-65
2021/03/17 01:08:11;;;;;;;19.82;16.62;;;;;;;3.29;79.38;98785.73;1791986;79;20995;-64
2021/03/17 01:10:44;;;;;;;28.20;15.50;;;;;;;3.27;79.51;98789.63;1785051;80;20994;-63
2021/03/17 01:13:12;;;;;;;18.73;12.63;;;;;;;3.27;79.61;98785.64;1785124;80;21614;-64
2021/03/17 01:15:39;;;;;;;24.77;16.80;;;;;;;3.27;79.55;98785.12;1758642;80;21362;-65
2021/03/17 01:18:07;;;;;;;27.58;17.48;;;;;;;3.28;79.57;98782.77;1753621;81;21002;-63
2021/03/17 01:20:35;;;;;;;24.18;18.02;;;;;;;3.28;79.59;98785.42;1775280;80;21022;-63
2021/03/17 01:23:03;;;;;;;32.25;18.60;;;;;;;3.25;79.72;98785.89;1784619;80;21081;-64
2021/03/17 01:25:36;;;;;;;37.93;19.98;;;;;;;3.22;79.83;98788.16;1773644;80;21169;-66
2021/03/17 01:28:06;;;;;;;27.35;17.20;;;;;;;3.21;79.63;98781.25;1724908;81;22274;-65
2021/03/17 01:30:44;;;;;;;20.17;14.93;;;;;;;3.15;79.60;98776.31;1771439;80;21627;-64
2021/03/17 01:33:12;;;;;;;27.80;14.90;;;;;;;3.14;79.31;98775.20;1771361;80;21615;-62
2021/03/17 01:35:42;;;;;;;18.75;13.78;;;;;;;3.14;79.25;98775.20;1784877;80;21428;-63
2021/03/17 01:38:09;;;;;;;16.45;12.40;;;;;;;3.11;79.10;98772.48;1780702;80;21141;-64
2021/03/17 01:40:40;;;;;;;16.77;11.08;;;;;;;3.10;79.19;98770.05;1777615;80;21567;-66
2021/03/17 01:43:10;;;;;;;18.98;12.03;;;;;;;3.12;79.16;98771.42;1784112;80;21022;-66
2021/03/17 01:45:38;;;;;;;21.27;11.68;;;;;;;3.14;79.09;98768.04;1753826;81;21120;-68
2021/03/17 01:48:07;;;;;;;15.35;12.93;;;;;;;3.15;78.89;98773.66;1753680;81;21472;-66
2021/03/17 01:50:45;;;;;;;19.42;13.25;;;;;;;3.15;78.80;98774.17;1754580;80;21583;-63
2021/03/17 01:53:30;;;;;;;22.73;11.73;;;;;;;3.16;78.81;98776.61;1756413;80;21370;-64
2021/03/17 01:55:58;;;;;;;21.20;14.10;;;;;;;3.20;78.63;98775.63;1753999;80;21105;-62
2021/03/17 01:58:26;;;;;;;28.07;11.90;;;;;;;3.19;78.39;98764.70;1774157;79;21149;-65
2021/03/17 02:00:54;;;;;;;18.57;12.15;;;;;;;3.17;78.20;98761.45;1794964;79;21625;-66
2021/03/17 02:03:22;;;;;;;31.55;13.78;;;;;;;3.14;78.23;98770.70;1796151;79;21117;-63
2021/03/17 02:05:50;;;;;;;24.10;14.87;;;;;;;3.14;78.36;98772.54;1769067;79;21413;-64
2021/03/17 02:08:25;;;;;;;21.00;13.35;;;;;;;3.17;78.40;98762.27;1793365;78;21140;-63
2021/03/17 02:10:53;;;;;;;26.00;14.63;;;;;;;3.19;78.19;98774.00;1730319;82;21152;-67
2021/03/17 02:13:48;;;;;;;19.32;12.80;;;;;;;3.19;78.18;98768.18;1758884;80;21224;-67
2021/03/17 02:16:40;;;;;;;32.70;17.70;;;;;;;3.16;78.06;98767.31;1779874;80;21563;-66
2021/03/17 02:19:31;;;;;;;26.45;17.07;;;;;;;3.15;78.30;98764.88;1761550;81;22120;-66
2021/03/17 02:22:30;;;;;;;29.85;17.57;;;;;;;3.21;78.40;98775.42;1779615;80;21574;-63
2021/03/17 02:25:09;;;;;;;37.38;21.68;;;;;;;3.18;78.58;98769.72;1733066;81;21006;-65
2021/03/17 02:28:18;;;;;;;26.80;15.83;;;;;;;3.20;78.77;98763.67;1748777;82;21158;-66
2021/03/17 02:31:07;;;;;;;25.40;16.87;;;;;;;3.22;78.73;98763.73;1710759;83;21134;-69
2021/03/17 02:33:49;;;;;;;23.87;17.25;;;;;;;3.20;78.65;98761.84;1674945;82;21373;-65
2021/03/17 02:36:43;;;;;;;34.40;19.77;;;;;;;3.19;78.80;98766.03;1759843;81;21629;-64
2021/03/17 02:39:35;;;;;;;21.02;14.90;;;;;;;3.18;79.05;98755.92;1755746;81;21451;-66
2021/03/17 02:42:23;;;;;;;26.37;15.13;;;;;;;3.18;79.07;98766.55;1755335;81;21177;-63
2021/03/17 02:44:56;;;;;;;24.63;18.07;;;;;;;3.22;79.03;98761.08;1756612;81;21373;-63
2021/03/17 02:47:24;;;;;;;20.90;17.87;;;;;;;3.25;78.88;98767.80;1726177;83;21397;-63
2021/03/17 02:49:52;;;;;;;20.52;16.12;;;;;;;3.20;78.88;98758.36;1738456;80;21548;-64
2021/03/17 02:52:19;;;;;;;22.22;14.30;;;;;;;3.19;78.91;98753.56;1753855;80;21114;-65
2021/03/17 02:54:47;;;;;;;25.57;17.00;;;;;;;3.15;78.73;98759.56;1761261;81;21010;-63
2021/03/17 02:57:20;;;;;;;20.08;13.72;;;;;;;3.14;78.75;98756.60;1781054;80;21149;-64
2021/03/17 02:59:52;;;;;;;19.82;13.18;;;;;;;3.18;78.77;98757.77;1784605;80;21200;-64
2021/03/17 03:02:21;;;;;;;;;;;;;;;3.22;78.43;98756.27;1786400;80;21007;-62
2021/03/17 03:04:51;;;;;;;19.40;13.53;;;;;;;3.24;78.34;98747.58;1784314;80;20151;-64
2021/03/17 03:07:18;;;;;;;18.12;13.70;;;;;;;3.26;78.01;98745.52;1771352;79;21181;-63
2021/03/17 03:09:46;;;;;;;24.67;13.28;;;;;;;3.26;78.00;98742.86;1774962;80;21109;-62
2021/03/17 03:12:14;;;;;;;26.50;13.22;;;;;;;3.25;77.92;98746.55;1784284;80;21407;-64
2021/03/17 03:14:43;;;;;;;26.62;14.07;;;;;;;3.21;78.07;98746.70;1782164;80;21611;-65
2021/03/17 03:17:11;;;;;;;20.88;15.43;;;;;;;3.19;78.04;98749.58;1780852;80;21470;-65
2021/03/17 03:19:53;;;;;;;19.62;13.55;;;;;;;3.18;78.17;98753.27;1784374;80;21197;-63
2021/03/17 03:22:24;;;;;;;24.60;15.63;;;;;;;3.15;78.09;98754.24;1779513;80;21547;-64
2021/03/17 03:24:54;;;;;;;20.65;14.25;;;;;;;3.14;78.23;98753.95;1752863;81;21216;-65
2021/03/17 03:27:21;;;;;;;29.60;15.50;;;;;;;3.16;78.17;98754.55;1777538;80;21623;-63
2021/03/17 03:29:49;;;;;;;21.73;15.98;;;;;;;3.15;78.10;98754.24;1782066;80;21132;-64
2021/03/17 03:32:16;;;;;;;24.40;16.57;;;;;;;3.14;78.10;98750.77;1784239;80;21575;-63
2021/03/17 03:34:45;;;;;;;17.57;13.58;;;;;;;3.12;78.12;98756.81;1784222;80;21161;-63
2021/03/17 03:37:14;;;;;;;17.20;12.05;;;;;;;3.14;78.12;98746.79;1783935;80;21194;-63
2021/03/17 03:39:42;;;;;;;20.17;13.80;;;;;;;3.15;78.05;98748.41;1784364;80;21196;-62
2021/03/17 03:42:10;;;;;;;18.60;15.08;;;;;;;3.13;77.89;98753.64;1770458;80;21117;-63
2021/03/17 03:44:38;;;;;;;34.85;15.28;;;;;;;3.08;78.05;98750.33;1766629;80;20979;-64
2021/03/17 03:47:05;;;;;;;20.05;13.35;;;;;;;3.08;78.13;98753.80;1784391;80;21772;-64
2021/03/17 03:49:33;;;;;;;16.80;12.90;;;;;;;3.10;77.93;98746.95;1780343;80;21205;-62
2021/03/17 03:52:16;;;;;;;26.97;14.83;;;;;;;3.13;77.86;98750.98;1753280;80;21176;-64
2021/03/17 03:54:55;;;;;;;26.55;14.35;;;;;;;3.10;77.81;98746.95;1726079;81;21105;-63
2021/03/17 03:57:26;;;;;;;26.95;13.65;;;;;;;3.13;77.94;98753.13;1752538;81;21195;-65
2021/03/17 03:59:57;;;;;;;25.20;14.87;;;;;;;3.16;77.98;98747.91;1749594;80;21160;-64
2021/03/17 04:02:26;;;;;;;16.62;13.78;;;;;;;3.19;77.73;98743.45;1753189;80;21387;-64
2021/03/17 04:04:56;;;;;;;25.50;15.53;;;;;;;3.22;77.62;98745.65;1748989;82;21590;-64
2021/03/17 04:07:24;;;;;;;27.22;17.00;;;;;;;3.24;77.48;98744.41;1748858;81;21642;-63
2021/03/17 04:09:53;;;;;;;22.55;14.83;;;;;;;3.24;77.41;98745.73;1749064;80;21599;-63
2021/03/17 04:12:22;;;;;;;25.60;17.77;;;;;;;3.22;77.46;98739.01;1749033;81;21169;-63
2021/03/17 04:14:53;;;;;;;29.15;15.48;;;;;;;3.23;77.47;98739.30;1749010;82;21214;-63
2021/03/17 04:17:37;;;;;;;26.02;14.60;;;;;;;3.23;77.42;98739.30;1749083;80;21181;-62
2021/03/17 04:20:11;;;;;;;27.10;15.50;;;;;;;3.25;77.44;98735.92;1758884;80;20999;-62
2021/03/17 04:22:38;;;;;;;;;;;;;;;3.21;77.40;98734.23;1771623;80;21173;-63
2021/03/17 04:25:08;;;;;;;20.95;14.58;;;;;;;3.21;77.43;98738.73;1779915;80;20278;-62
2021/03/17 04:27:35;;;;;;;24.23;14.78;;;;;;;3.17;77.31;98734.38;1731075;82;21378;-63
2021/03/17 04:30:06;;;;;;;23.50;15.18;;;;;;;3.16;77.32;98732.78;1748856;82;21161;-64
2021/03/17 04:32:33;;;;;;;27.40;15.48;;;;;;;3.14;77.33;98732.69;1731081;82;21057;-64
2021/03/17 04:35:01;;;;;;;31.10;14.15;;;;;;;3.14;77.42;98728.19;1731241;81;21054;-65
2021/03/17 04:37:30;;;;;;;28.73;14.93;;;;;;;3.18;77.45;98721.91;1757405;80;21181;-63
2021/03/17 04:39:58;;;;;;;22.50;14.95;;;;;;;3.12;77.44;98724.94;1738549;81;21453;-63
2021/03/17 04:42:26;;;;;;;26.68;14.18;;;;;;;3.09;77.61;98726.73;1702264;82;21137;-62
2021/03/17 04:44:56;;;;;;;24.18;14.33;;;;;;;3.13;77.66;98726.56;1731106;81;21032;-64
2021/03/17 04:47:23;;;;;;;29.90;15.78;;;;;;;3.16;77.61;98725.32;1748891;82;21125;-66
2021/03/17 04:49:52;;;;;;;24.77;16.50;;;;;;;3.15;77.68;98727.16;1701841;84;21196;-64
2021/03/17 04:52:20;;;;;;;38.10;21.33;;;;;;;3.18;77.63;98720.58;1748354;81;21383;-65
2021/03/17 04:54:49;;;;;;;28.17;17.23;;;;;;;3.19;77.57;98720.87;1723246;83;40677;-65
2021/03/17 04:57:23;;;;;;;26.23;14.05;;;;;;;3.22;77.57;98720.41;1728273;83;21190;-66
2021/03/17 04:59:51;;;;;;;23.70;15.48;;;;;;;3.23;77.41;98716.21;1742679;81;21129;-66
2021/03/17 05:02:25;;;;;;;22.93;14.70;;;;;;;3.24;77.45;98716.51;1748997;81;21639;-66
2021/03/17 05:04:52;;;;;;;30.55;17.80;;;;;;;3.25;77.40;98718.13;1737890;81;21358;-68
2021/03/17 05:07:20;;;;;;;21.48;13.60;;;;;;;3.25;77.42;98717.32;1737556;82;21596;-66
2021/03/17 05:09:48;;;;;;;16.23;13.32;;;;;;;3.23;77.42;98717.53;1750606;81;21026;-66
2021/03/17 05:12:16;;;;;;;11.97;9.55;;;;;;;3.26;77.39;98721.61;1751102;81;21992;-66
2021/03/17 05:14:44;;;;;;;32.33;14.73;;;;;;;3.24;77.28;98727.65;1738061;81;21146;-65
2021/03/17 05:17:13;;;;;;;29.25;13.38;;;;;;;3.25;77.42;98726.63;1745379;81;21346;-65
2021/03/17 05:19:41;;;;;;;26.30;14.58;;;;;;;3.29;77.48;98727.78;1738181;81;21575;-65
2021/03/17 05:22:09;;;;;;;21.45;12.65;;;;;;;3.33;77.38;98721.79;1752994;81;21045;-65
2021/03/17 05:24:37;;;;;;;22.67;13.43;;;;;;;3.32;77.24;98719.34;1753503;81;21133;-65
2021/03/17 05:27:13;;;;;;;21.42;14.45;;;;;;;3.33;77.26;98716.98;1753455;81;21125;-65
2021/03/17 05:29:41;;;;;;;20.50;14.90;;;;;;;3.30;77.27;98725.42;1753679;81;22150;-64
2021/03/17 05:32:09;;;;;;;15.32;11.25;;;;;;;3.31;77.33;98721.19;1753370;81;21181;-65
2021/03/17 05:34:58;;;;;;;21.75;11.97;;;;;;;3.34;77.07;98725.26;1752670;81;21038;-64
2021/03/17 05:37:27;;;;;;;26.40;13.70;;;;;;;3.36;76.98;98720.00;1745070;81;21193;-66
2021/03/17 05:39:55;;;;;;;16.17;11.85;;;;;;;3.40;76.87;98723.03;1753084;81;21119;-64
2021/03/17 05:42:24;;;;;;;21.55;15.60;;;;;;;3.41;76.73;98718.80;1745317;81;21193;-65
2021/03/17 05:44:53;;;;;;;22.15;13.03;;;;;;;3.37;76.68;98724.28;1745159;81;21158;-65
2021/03/17 05:47:22;;;;;;;17.32;12.43;;;;;;;3.36;76.79;98729.30;1737768;82;21229;-65
2021/03/17 05:49:50;;;;;;;21.77;12.58;;;;;;;3.38;76.91;98731.22;1737818;81;21135;-65
2021/03/17 05:52:19;;;;;;;22.32;12.98;;;;;;;3.45;77.00;98740.44;1746861;81;21160;-66
2021/03/17 05:54:46;;;;;;;27.37;14.33;;;;;;;3.49;77.00;98741.59;1751157;81;21210;-64
2021/03/17 05:57:14;;;;;;;24.15;12.82;;;;;;;3.54;76.84;98731.09;1728008;81;21614;-65
2021/03/17 05:59:41;;;;;;;20.35;12.82;;;;;;;3.55;76.47;98733.23;1753921;81;21197;-65
2021/03/17 06:02:09;;;;;;;18.20;10.58;;;;;;;3.60;76.39;98732.82;1754242;81;21018;-65
2021/03/17 06:04:38;;;;;;;22.02;11.78;;;;;;;3.59;76.00;98733.06;1747748;81;21103;-64
2021/03/17 06:07:12;;;;;;;20.97;12.35;;;;;;;3.58;75.90;98732.25;1739514;82;21359;-65
2021/03/17 06:09:40;;;;;;;22.77;11.95;;;;;;;3.58;75.98;98732.77;1738683;81;21156;-65
2021/03/17 06:12:08;;;;;;;23.38;14.87;;;;;;;3.59;76.06;98739.20;1738601;82;21549;-63
2021/03/17 06:14:36;;;;;;;30.65;17.15;;;;;;;3.60;76.03;98738.68;1738437;81;21154;-65
2021/03/17 06:17:08;;;;;;;31.52;20.12;;;;;;;3.61;76.02;98737.63;1738626;81;21159;-66
2021/03/17 06:19:35;;;;;;;35.23;20.90;;;;;;;3.62;75.87;98735.26;1738446;82;21818;-65
2021/03/17 06:22:03;;;;;;;22.98;13.98;;;;;;;3.61;75.95;98734.96;1727234;81;21654;-66
2021/03/17 06:24:32;;;;;;;14.45;12.05;;;;;;;3.64;75.85;98740.66;1753341;81;21022;-64
2021/03/17 06:26:59;;;;;;;27.07;13.18;;;;;;;3.63;75.80;98739.55;1753945;81;21034;-63
2021/03/17 06:29:27;;;;;;;16.52;11.33;;;;;;;3.65;75.89;98732.95;1753655;81;21224;-66
2021/03/17 06:31:54;;;;;;;22.37;11.80;;;;;;;3.63;75.74;98735.05;1744144;81;21229;-67
2021/03/17 06:34:22;;;;;;;30.05;11.08;;;;;;;3.64;75.87;98734.52;1753977;81;21136;-65
2021/03/17 06:36:57;;;;;;;19.27;11.70;;;;;;;3.64;75.81;98735.86;1754073;81;21606;-65
2021/03/17 06:39:35;;;;;;;19.27;13.50;;;;;;;3.66;75.64;98733.24;1752855;81;21133;-65
2021/03/17 06:42:02;;;;;;;17.75;10.90;;;;;;;3.70;75.70;98742.38;1754216;81;21161;-65
2021/03/17 06:44:31;;;;;;;20.77;12.80;;;;;;;3.74;75.63;98727.58;1756901;81;21385;-65
2021/03/17 06:47:19;;;;;;;23.00;12.23;;;;;;;3.78;75.48;98730.61;1754679;81;21133;-64
2021/03/17 06:49:50;;;;;;;15.10;10.03;;;;;;;3.77;75.42;98740.44;1754173;81;20971;-64
2021/03/17 06:52:38;;;;;;;24.20;12.47;;;;;;;3.73;75.48;98731.30;1750052;81;21172;-66
2021/03/17 06:55:16;;;;;;;17.62;11.75;;;;;;;3.73;75.57;98729.16;1753990;81;21133;-67
2021/03/17 06:57:53;;;;;;;23.05;12.98;;;;;;;3.69;75.67;98728.00;1754087;81;22316;-65
2021/03/17 07:00:37;;;;;;;24.15;13.88;;;;;;;3.69;75.98;98740.78;1753479;81;21225;-65
2021/03/17 07:03:08;;;;;;;18.37;11.73;;;;;;;3.71;76.27;98732.04;1753837;81;21863;-64
2021/03/17 07:05:46;;;;;;;15.20;10.88;;;;;;;3.78;76.09;98733.27;1753538;81;21196;-65
2021/03/17 07:08:28;;;;;;;21.35;14.68;;;;;;;3.82;75.98;98735.24;1753663;81;21077;-65
2021/03/17 07:10:58;;;;;;;24.00;13.13;;;;;;;3.82;76.05;98735.76;1749031;81;21368;-65
2021/03/17 07:13:29;;;;;;;18.77;11.15;;;;;;;3.80;76.18;98730.66;1752493;81;21130;-66
2021/03/17 07:15:59;;;;;;;26.00;18.45;;;;;;;3.80;76.20;98743.95;1753818;81;20983;-65
2021/03/17 07:18:31;;;;;;;37.58;18.57;;;;;;;3.85;76.39;98740.61;1753710;81;21006;-64
2021/03/17 07:21:01;;;;;;;22.40;14.95;;;;;;;3.91;76.66;98739.18;1753887;81;21563;-66
2021/03/17 07:23:45;;;;;;;28.98;15.23;;;;;;;3.99;76.63;98731.88;1753751;81;21194;-64
2021/03/17 07:26:20;;;;;;;23.98;12.98;;;;;;;4.04;76.50;98732.81;1743949;81;21672;-64
2021/03/17 07:29:00;;;;;;;19.92;13.45;;;;;;;4.05;76.05;98730.97;1741658;81;21217;-64
2021/03/17 07:31:35;;;;;;;63.38;31.73;;;;;;;4.03;76.18;98729.08;1739170;81;21119;-65
2021/03/17 07:34:26;;;;;;;48.85;25.88;;;;;;;4.04;76.09;98732.00;1738912;81;21159;-65
2021/03/17 07:37:00;;;;;;;18.77;12.85;;;;;;;3.95;76.36;98728.36;1737934;82;21599;-65
2021/03/17 07:39:34;;;;;;;48.73;26.90;;;;;;;3.98;76.57;98730.29;1737877;82;21166;-65
2021/03/17 07:42:07;;;;;;;28.83;16.80;;;;;;;4.00;76.61;98725.53;1737959;82;21623;-65
2021/03/17 07:44:36;;;;;;;21.55;15.63;;;;;;;4.02;76.42;98730.92;1738615;81;21140;-65
2021/03/17 07:47:07;;;;;;;15.98;11.22;;;;;;;4.03;76.55;98733.85;1737813;82;21154;-66
2021/03/17 07:49:41;;;;;;;;;;;;;;;4.06;76.62;98732.08;1739364;82;21323;-64
2021/03/17 07:52:25;;;;;;;33.23;16.82;;;;;;;4.06;76.81;98732.08;1737866;82;20258;-65
2021/03/17 07:54:58;;;;;;;31.15;16.67;;;;;;;4.05;76.92;98730.45;1752144;81;21038;-65
2021/03/17 07:57:28;;;;;;;30.35;16.52;;;;;;;4.08;77.15;98736.63;1753549;81;21196;-71
2021/03/17 07:59:56;;;;;;;23.92;13.60;;;;;;;4.15;77.34;98738.67;1753677;81;21290;-65
2021/03/17 08:02:23;;;;;;;27.40;15.23;;;;;;;4.24;76.84;98740.45;1754108;81;21455;-64
2021/03/17 08:04:52;;;;;;;20.48;11.48;;;;;;;4.31;76.71;98727.33;1745399;81;21186;-65
2021/03/17 08:07:20;;;;;;;16.75;11.55;;;;;;;4.35;76.04;98719.16;1741344;81;21105;-65
2021/03/17 08:09:49;;;;;;;24.47;16.15;;;;;;;4.37;75.72;98723.72;1724951;83;21659;-68
2021/03/17 08:12:17;;;;;;;29.00;15.75;;;;;;;4.37;75.63;98726.38;1724011;83;21137;-66
2021/03/17 08:14:45;;;;;;;25.92;16.42;;;;;;;4.39;75.44;98726.16;1723956;83;21347;-64
2021/03/17 08:17:13;;;;;;;36.17;19.62;;;;;;;4.38;75.46;98724.53;1723902;83;21886;-64
2021/03/17 08:19:42;;;;;;;70.45;35.15;;;;;;;4.39;75.15;98717.66;1690624;82;21588;-65
2021/03/17 08:22:12;;;;;;;49.55;26.35;;;;;;;4.48;75.24;98718.61;1738125;82;21246;-65
2021/03/17 08:24:40;;;;;;;27.65;12.85;;;;;;;4.54;74.60;98712.36;1746488;81;21172;-66
2021/03/17 08:27:17;;;;;;;31.90;18.00;;;;;;;4.50;73.79;98715.21;1749191;81;21435;-64
2021/03/17 08:29:50;;;;;;;23.18;12.78;;;;;;;4.51;73.61;98719.50;1738278;82;21199;-66
2021/03/17 08:32:19;;;;;;;17.35;10.75;;;;;;;4.53;73.66;98713.39;1738537;82;21024;-63
2021/03/17 08:34:57;;;;;;;13.10;9.00;;;;;;;4.55;73.60;98713.98;1743636;81;21014;-65
2021/03/17 08:37:52;;;;;;;17.87;11.53;;;;;;;4.56;73.22;98708.92;1727752;81;21154;-65
2021/03/17 08:40:35;;;;;;;15.98;9.10;;;;;;;4.59;73.00;98716.46;1752404;81;21406;-65
2021/03/17 08:43:38;;;;;;;16.35;10.38;;;;;;;4.72;72.15;98703.69;1753932;81;21006;-64
2021/03/17 08:46:17;;;;;;;12.28;8.90;;;;;;;4.72;72.15;98703.69;1745500;81;21034;-65
2021/03/17 08:49:02;;;;;;;23.95;11.03;;;;;;;4.74;71.24;98703.45;1750444;81;21144;-67
2021/03/17 08:51:51;;;;;;;24.65;12.28;;;;;;;4.76;71.27;98708.82;1753271;81;21152;-64
2021/03/17 08:54:44;;;;;;;23.75;16.25;;;;;;;4.76;71.27;98708.82;1754010;81;21379;-65
2021/03/17 08:57:11;;;;;;;21.65;15.32;;;;;;;4.82;71.69;98715.06;1753649;81;21168;-65
2021/03/17 09:00:01;;;;;;;25.25;16.75;;;;;;;4.89;71.74;98718.41;1753470;81;21101;-66
2021/03/17 09:02:34;;;;;;;29.80;16.62;;;;;;;4.94;71.60;98715.82;1754006;81;21138;-66
2021/03/17 09:05:04;;;;;;;17.00;11.50;;;;;;;4.94;71.51;98717.16;1751524;81;21196;-65
2021/03/17 09:07:34;;;;;;;21.17;9.15;;;;;;;4.94;71.61;98717.16;1754011;81;21373;-66
2021/03/17 09:10:15;;;;;;;17.20;10.32;;;;;;;4.95;71.67;98721.44;1751803;81;21026;-64
2021/03/17 09:12:46;;;;;;;19.90;12.15;;;;;;;4.98;71.95;98716.98;1753985;81;21187;-66
2021/03/17 09:15:19;;;;;;;19.67;10.55;;;;;;;4.97;71.69;98718.55;1754142;81;21125;-64
2021/03/17 09:17:52;;;;;;;20.02;10.50;;;;;;;4.98;71.69;98723.66;1753804;81;21173;-66
2021/03/17 09:20:42;;;;;;;16.93;11.65;;;;;;;5.00;71.53;98718.06;1754269;81;22168;-64
2021/03/17 09:23:20;;;;;;;21.93;10.72;;;;;;;4.98;71.58;98716.18;1747923;81;21579;-65
2021/03/17 09:25:59;;;;;;;16.32;8.53;;;;;;;5.00;71.73;98721.54;1739472;81;21051;-65
2021/03/17 09:28:35;;;;;;;19.65;9.20;;;;;;;5.03;71.84;98721.61;1738537;82;21676;-64
2021/03/17 09:31:06;;;;;;;22.17;12.40;;;;;;;5.08;71.93;98726.52;1738622;82;21170;-64
2021/03/17 09:33:38;;;;;;;29.45;14.43;;;;;;;5.16;72.03;98723.45;1738721;81;21457;-66
2021/03/17 09:36:13;;;;;;;19.10;10.90;;;;;;;5.27;71.50;98724.45;1738448;82;21168;-67
2021/03/17 09:38:47;;;;;;;18.02;9.50;;;;;;;5.36;71.07;98728.35;1738567;81;21155;-66
2021/03/17 09:41:19;;;;;;;17.35;8.35;;;;;;;5.41;70.49;98720.44;1738492;82;21129;-65
2021/03/17 09:43:55;;;;;;;42.48;18.57;;;;;;;5.45;69.91;98726.09;1736887;81;21166;-66
2021/03/17 09:46:42;;;;;;;22.73;11.93;;;;;;;5.47;70.14;98735.46;1750639;81;21408;-66
2021/03/17 09:49:23;;;;;;;30.40;14.38;;;;;;;5.53;70.25;98731.84;1738399;82;21216;-65
2021/03/17 09:51:54;;;;;;;36.33;19.23;;;;;;;5.49;69.17;98738.71;1738490;82;20988;-66
2021/03/17 09:54:27;;;;;;;23.80;10.03;;;;;;;5.44;69.23;98741.28;1738158;82;21185;-66
2021/03/17 09:57:01;;;;;;;17.27;9.40;;;;;;;5.36;69.16;98739.53;1738531;82;21592;-65
2021/03/17 09:59:40;;;;;;;29.37;14.03;;;;;;;5.30;69.38;98740.48;1738353;81;21472;-65
2021/03/17 10:02:28;;;;;;;39.73;25.95;;;;;;;5.32;69.71;98741.88;1749666;81;20979;-66
2021/03/17 10:04:57;;;;;;;25.60;14.98;;;;;;;5.37;69.88;98739.83;1747119;81;21152;-65
2021/03/17 10:07:27;;;;;;;25.12;12.30;;;;;;;5.38;69.92;98734.75;1739331;81;21173;-65
2021/03/17 10:09:56;;;;;;;23.50;9.38;;;;;;;5.39;70.10;98722.53;1739409;81;21164;-67
2021/03/17 10:12:29;;;;;;;28.23;10.48;;;;;;;5.42;69.41;98726.59;1752730;81;22281;-64
2021/03/17 10:15:05;;;;;;;38.23;12.47;;;;;;;5.48;69.67;98721.09;1752903;81;21184;-66
2021/03/17 10:17:35;;;;;;;20.45;8.90;;;;;;;5.61;69.66;98723.44;1753991;81;21049;-64
2021/03/17 10:20:09;;;;;;;20.92;11.45;;;;;;;5.70;69.08;98726.02;1741634;81;21163;-64
2021/03/17 10:22:36;;;;;;;17.80;9.10;;;;;;;5.73;68.53;98718.04;1739935;81;21194;-66
2021/03/17 10:25:14;;;;;;;49.50;24.23;;;;;;;5.75;68.49;98724.48;1752165;81;21427;-65
2021/03/17 10:27:49;;;;;;;22.77;13.28;;;;;;;5.75;68.58;98722.63;1753348;81;21136;-64
2021/03/17 10:30:37;;;;;;;15.38;10.10;;;;;;;5.75;67.96;98725.81;1740174;81;20976;-67
2021/03/17 10:33:10;;;;;;;15.35;9.63;;;;;;;5.77;68.30;98726.36;1747618;81;21168;-66
2021/03/17 10:35:38;;;;;;;16.07;9.33;;;;;;;5.78;68.42;98727.45;1738412;82;21136;-64
2021/03/17 10:38:07;;;;;;;24.67;8.43;;;;;;;5.79;68.16;98723.75;1745941;81;22691;-65
2021/03/17 10:40:36;;;;;;;17.82;9.25;;;;;;;5.77;67.76;98724.50;1754001;81;21108;-66
2021/03/17 10:43:11;;;;;;;24.27;9.65;;;;;;;5.77;68.09;98729.03;1754053;81;21150;-64
2021/03/17 10:45:47;;;;;;;24.57;9.40;;;;;;;5.78;68.03;98726.65;1753949;81;21043;-65
2021/03/17 10:48:18;;;;;;;24.02;9.45;;;;;;;5.77;68.06;98731.70;1742696;81;21631;-64
2021/03/17 10:50:46;;;;;;;11.05;8.08;;;;;;;5.81;68.06;98728.82;1739998;81;21209;-64
2021/03/17 10:53:28;;;;;;;13.28;7.75;;;;;;;5.82;67.90;98725.92;1753968;81;21117;-67
2021/03/17 10:55:58;;;;;;;15.73;9.43;;;;;;;5.84;67.90;98729.69;1754714;81;21570;-65
2021/03/17 10:58:30;;;;;;;15.43;9.43;;;;;;;5.84;67.90;98727.02;1754879;81;21792;-64
2021/03/17 11:01:00;;;;;;;17.87;11.60;;;;;;;5.87;67.84;98722.03;1754385;81;21160;-64
2021/03/17 11:03:38;;;;;;;16.07;8.90;;;;;;;5.90;67.61;98723.42;1754056;81;21379;-66
2021/03/17 11:06:17;;;;;;;16.20;8.60;;;;;;;5.89;67.22;98715.94;1753821;81;21582;-66
2021/03/17 11:08:48;;;;;;;23.62;13.13;;;;;;;5.86;66.69;98715.56;1723977;83;21617;-65
2021/03/17 11:11:17;;;;;;;73.47;38.58;;;;;;;5.84;66.75;98715.83;1725253;83;21188;-65
2021/03/17 11:13:46;;;;;;;35.25;19.15;;;;;;;5.83;67.27;98722.73;1723913;83;21236;-63
2021/03/17 11:16:31;;;;;;;19.87;9.55;;;;;;;5.80;67.81;98716.03;1727880;81;22267;-65
2021/03/17 11:19:00;;;;;;;74.05;37.42;;;;;;;5.79;67.72;98717.60;1738607;81;21134;-65
2021/03/17 11:21:36;;;;;;;48.50;23.95;;;;;;;5.76;67.98;98716.73;1754014;81;21685;-65
2021/03/17 11:24:10;;;;;;;20.08;11.88;;;;;;;5.79;68.06;98721.60;1769255;80;21787;-64
2021/03/17 11:26:39;;;;;;;17.25;10.10;;;;;;;5.83;67.86;98712.87;1733354;81;21153;-65
2021/03/17 11:29:20;;;;;;;38.30;20.92;;;;;;;5.84;68.25;98713.16;1753974;81;21622;-65
2021/03/17 11:31:53;;;;;;;20.15;11.20;;;;;;;5.82;68.11;98719.25;1775456;80;21595;-65
2021/03/17 11:34:21;;;;;;;15.58;8.93;;;;;;;5.82;67.97;98715.25;1743236;80;21154;-66
2021/03/17 11:36:50;;;;;;;16.32;7.85;;;;;;;5.85;68.22;98717.42;1738782;82;21031;-65
2021/03/17 11:39:18;;;;;;;15.50;8.10;;;;;;;5.88;67.71;98708.17;1744414;81;21145;-69
2021/03/17 11:41:47;;;;;;;29.77;10.08;;;;;;;5.85;67.43;98710.75;1722440;83;21210;-65
2021/03/17 11:44:17;;;;;;;23.38;9.63;;;;;;;5.86;67.32;98716.38;1713104;82;21621;-65
2021/03/17 11:46:44;;;;;;;11.28;7.05;;;;;;;5.77;67.64;98715.69;1712881;83;21597;-64
2021/03/17 11:49:14;;;;;;;18.42;11.12;;;;;;;5.71;67.81;98716.12;1712487;83;21159;-65
2021/03/17 11:51:43;;;;;;;21.57;9.38;;;;;;;5.71;68.00;98732.12;1712446;83;21198;-65
2021/03/17 11:54:11;;;;;;;23.62;12.33;;;;;;;5.68;68.29;98725.95;1722415;83;21213;-65
2021/03/17 11:56:39;;;;;;;15.05;9.95;;;;;;;5.66;68.12;98720.86;1723931;82;22006;-65